Weather History for KLJF - November, 2011

Change the Weather History Date:

Saturday, November 26, 2011

  Actual Average Record
Temperature  
Mean Temperature 40 °F -  
Max Temperature 48 °F 33 °F 57 °F (1998)
Min Temperature 33 °F 18 °F -13 °F (1977)
Degree Days  
Heating Degree Days 24    
Moisture  
Dew Point 35 °F    
Average Humidity 91    
Maximum Humidity 100    
Minimum Humidity 75    
Precipitation  
Precipitation 0.00 in - - ()
Sea Level Pressure  
Sea Level Pressure 29.87 in    
Wind  
Wind Speed 11 mph (NW)    
Max Wind Speed 23 mph    
Max Gust Speed 36 mph    
Visibility 8 miles    
Events Fog , Rain    
Averages and records for this station are not official NWS values.
T = Trace of Precipitation, MM = Missing Value Source: NWS Daily Summary

Daily Weather History Graph

Daily Weather History Graph

Search for Another Location

Airport or City:

Trip Planner

Search our weather history database for the weather conditions in past years. The results will help you decide how hot, cold, wet, or windy it might be!

Date:

Astronomy

Nov. 26, 2011 Rise Set
Actual Time 7:30 AM CST 4:40 PM CST
Civil Twilight 6:57 AM CST 5:12 PM CST
Nautical Twilight 6:20 AM CST 5:49 PM CST
Astronomical Twilight 5:45 AM CST 6:24 PM CST
Moon 9:04 AM CST (11/26) 6:09 PM CST (11/26)
Length of Visible Light 10h 15m
Length of Day
9h 10m
Waxing Crescent, 3% of the Moon is Illuminated
Nov 26
Waxing Crescent
Dec 2
First Quarter
Dec 10
Full
Dec 17
Last Quarter
Dec 24
New

Hourly Weather History & Observations

Time (CST) Temp. Windchill Dew Point Humidity Pressure Visibility Wind Dir Wind Speed Gust Speed Precip Events Conditions
12:33 AM 48.2 °F - 46.4 °F 93% 29.63 in 5.0 mi SSE 3.5 mph - N/A   Scattered Clouds
12:53 AM 46.4 °F 45.2 °F 46.4 °F 100% 29.63 in 5.0 mi SSE 3.5 mph - N/A   Mostly Cloudy
1:13 AM 46.4 °F - 44.6 °F 93% 29.64 in 5.0 mi Calm Calm - N/A   Mostly Cloudy
1:33 AM 46.4 °F 45.2 °F 44.6 °F 93% 29.63 in 5.0 mi SSE 3.5 mph - N/A   Overcast
1:53 AM 46.4 °F - 44.6 °F 93% 29.64 in 5.0 mi Calm Calm - N/A   Overcast
2:13 AM 46.4 °F 43.5 °F 46.4 °F 100% 29.64 in 5.0 mi WSW 5.8 mph - N/A   Overcast
2:33 AM 44.6 °F 42.2 °F 42.8 °F 93% 29.66 in 4.0 mi West 4.6 mph - N/A   Overcast
2:53 AM 42.8 °F 38.0 °F 42.8 °F 100% 29.66 in 5.0 mi West 8.1 mph - N/A   Overcast
3:12 AM 42.8 °F 39.3 °F 41.0 °F 93% 29.66 in 7.0 mi West 5.8 mph - N/A   Overcast
3:33 AM 41.0 °F 36.4 °F 39.2 °F 93% 29.67 in 4.0 mi West 6.9 mph - N/A   Overcast
3:53 AM 39.2 °F 35.0 °F 39.2 °F 100% 29.67 in 0.8 mi West 5.8 mph - N/A   Overcast
4:12 AM 39.2 °F 35.0 °F 39.2 °F 100% 29.67 in 0.5 mi West 5.8 mph - N/A Fog Fog
4:33 AM 39.2 °F 34.2 °F 39.2 °F 100% 29.67 in 0.5 mi West 6.9 mph - N/A Fog Fog
4:53 AM 39.2 °F 33.6 °F 39.2 °F 100% 29.68 in 1.0 mi West 8.1 mph - N/A   Overcast
5:12 AM 39.2 °F 32.5 °F 39.2 °F 100% 29.70 in 1.5 mi West 10.4 mph 17.3 mph N/A   Overcast
5:33 AM 37.4 °F 29.3 °F 37.4 °F 100% 29.71 in 1.8 mi WNW 12.7 mph - N/A   Overcast
5:53 AM 37.4 °F 29.8 °F 37.4 °F 100% 29.71 in 2.5 mi WNW 11.5 mph - N/A   Overcast
6:12 AM 37.4 °F 29.3 °F 37.4 °F 100% 29.72 in 3.0 mi WNW 12.7 mph - N/A   Overcast
6:33 AM 37.4 °F 29.3 °F 37.4 °F 100% 29.74 in 3.0 mi WNW 12.7 mph 20.7 mph N/A   Overcast
6:53 AM 37.4 °F 28.5 °F 37.4 °F 100% 29.74 in 4.0 mi WNW 15.0 mph 21.9 mph N/A   Overcast
7:33 AM 37.4 °F 28.5 °F 37.4 °F 100% 29.77 in 5.0 mi WNW 15.0 mph 20.7 mph N/A   Overcast
8:13 AM 37.4 °F 28.5 °F 37.4 °F 100% 29.79 in 4.0 mi WNW 15.0 mph 23.0 mph N/A   Overcast
8:33 AM 37.4 °F 28.9 °F 37.4 °F 100% 29.80 in 5.0 mi WNW 13.8 mph 21.9 mph N/A   Overcast
8:53 AM 37.4 °F 27.8 °F 37.4 °F 100% 29.81 in 7.0 mi WNW 17.3 mph 24.2 mph N/A   Overcast
9:13 AM 37.4 °F 28.9 °F 37.4 °F 100% 29.82 in 10.0 mi WNW 13.8 mph 27.6 mph N/A   Overcast
9:33 AM 37.4 °F 27.8 °F 37.4 °F 100% 29.82 in 10.0 mi NW 17.3 mph 28.8 mph N/A   Overcast
9:53 AM 37.4 °F 27.2 °F 35.6 °F 93% 29.83 in 7.0 mi NW 19.6 mph 29.9 mph N/A   Overcast
10:13 AM 37.4 °F 26.6 °F 35.6 °F 93% 29.84 in 7.0 mi NW 21.9 mph 31.1 mph N/A   Overcast
10:33 AM 37.4 °F 27.8 °F 35.6 °F 93% 29.85 in 10.0 mi NW 17.3 mph 27.6 mph N/A   Overcast
10:53 AM 37.4 °F 26.9 °F 35.6 °F 93% 29.86 in 10.0 mi NW 20.7 mph 28.8 mph N/A   Overcast
11:13 AM 37.4 °F 27.5 °F 35.6 °F 93% 29.87 in 10.0 mi NW 18.4 mph 26.5 mph N/A   Overcast
11:33 AM 35.6 °F 24.5 °F 35.6 °F 100% 29.87 in 10.0 mi NW 20.7 mph 27.6 mph N/A   Overcast
11:53 AM 35.6 °F 25.2 °F 33.8 °F 93% 29.88 in 10.0 mi NW 18.4 mph 26.5 mph N/A   Overcast
12:13 PM 35.6 °F 24.8 °F 33.8 °F 93% 29.88 in 10.0 mi NW 19.6 mph 34.5 mph N/A   Overcast
12:33 PM 35.6 °F 24.5 °F 33.8 °F 93% 29.89 in 10.0 mi NW 20.7 mph 29.9 mph N/A   Overcast
12:53 PM 35.6 °F 24.0 °F 33.8 °F 93% 29.90 in 10.0 mi NW 23.0 mph 28.8 mph N/A   Overcast
1:13 PM 35.6 °F 25.2 °F 33.8 °F 93% 29.91 in 10.0 mi NW 18.4 mph 27.6 mph N/A   Overcast
1:53 PM 37.4 °F 28.5 °F 32.0 °F 81% 29.92 in 10.0 mi NW 15.0 mph 31.1 mph N/A   Overcast
2:13 PM 37.4 °F 26.4 °F 32.0 °F 81% 29.93 in 10.0 mi NW 23.0 mph 28.8 mph N/A   Overcast
2:33 PM 37.4 °F 27.2 °F 32.0 °F 81% 29.94 in 10.0 mi NW 19.6 mph 31.1 mph N/A   Overcast
2:53 PM 37.4 °F 28.2 °F 32.0 °F 81% 29.95 in 10.0 mi NW 16.1 mph 33.4 mph N/A   Overcast
3:13 PM 35.6 °F 24.2 °F 30.2 °F 81% 29.96 in 10.0 mi NW 21.9 mph 32.2 mph N/A   Overcast
3:34 PM 35.6 °F 24.2 °F 30.2 °F 81% 29.97 in 10.0 mi NW 21.9 mph 35.7 mph N/A   Overcast
3:53 PM 35.6 °F 24.8 °F 30.2 °F 81% 29.98 in 10.0 mi NW 19.6 mph 28.8 mph N/A   Overcast
4:13 PM 35.6 °F 25.2 °F 32.0 °F 87% 30.00 in 10.0 mi NW 18.4 mph 26.5 mph N/A   Overcast
4:32 PM 33.8 °F 23.2 °F 32.0 °F 93% 30.01 in 5.0 mi NW 17.3 mph 26.5 mph N/A Rain Light Rain
4:53 PM 33.8 °F 22.2 °F 33.8 °F 100% 30.02 in 10.0 mi NW 20.7 mph 26.5 mph N/A   Light Drizzle
5:13 PM 33.8 °F 22.2 °F 32.0 °F 93% 30.03 in 10.0 mi NW 20.7 mph 26.5 mph N/A   Overcast
5:33 PM 33.8 °F 23.2 °F 32.0 °F 93% 30.04 in 10.0 mi NW 17.3 mph 26.5 mph N/A   Mostly Cloudy
6:13 PM 35.6 °F 24.5 °F 32.0 °F 87% 30.05 in 10.0 mi NW 20.7 mph 27.6 mph N/A   Overcast
6:32 PM 35.6 °F 24.8 °F 32.0 °F 87% 30.06 in 10.0 mi NW 19.6 mph 28.8 mph N/A   Overcast
6:53 PM 35.6 °F 24.0 °F 32.0 °F 87% 30.06 in 10.0 mi NNW 23.0 mph 31.1 mph N/A   Overcast
7:13 PM 35.6 °F 24.2 °F 32.0 °F 87% 30.07 in 10.0 mi NW 21.9 mph 31.1 mph N/A   Overcast
7:33 PM 35.6 °F 25.2 °F 30.2 °F 81% 30.07 in 10.0 mi NW 18.4 mph 29.9 mph N/A   Overcast
8:12 PM 35.6 °F 25.5 °F 30.2 °F 81% 30.08 in 10.0 mi NW 17.3 mph 29.9 mph N/A   Overcast
8:33 PM 33.8 °F 22.8 °F 28.4 °F 81% 30.09 in 10.0 mi NW 18.4 mph 32.2 mph N/A   Overcast
9:13 PM 33.8 °F 23.2 °F 28.4 °F 81% 30.10 in 10.0 mi NW 17.3 mph 25.3 mph N/A   Overcast
9:33 PM 33.8 °F 22.8 °F 28.4 °F 81% 30.10 in 10.0 mi NNW 18.4 mph 26.5 mph N/A   Overcast
10:13 PM 33.8 °F 22.5 °F 28.4 °F 81% 30.10 in 10.0 mi NW 19.6 mph 27.6 mph N/A   Overcast
10:33 PM 33.8 °F 23.9 °F 28.4 °F 81% 30.11 in 10.0 mi NW 15.0 mph 28.8 mph N/A   Overcast
10:53 PM 33.8 °F 23.5 °F 26.6 °F 75% 30.11 in 10.0 mi NW 16.1 mph 24.2 mph N/A   Overcast
11:13 PM 33.8 °F 22.8 °F 26.6 °F 75% 30.11 in 10.0 mi NW 18.4 mph 24.2 mph N/A   Overcast
11:33 PM 33.8 °F 23.2 °F 26.6 °F 75% 30.11 in 10.0 mi NW 17.3 mph 24.2 mph N/A   Overcast
11:53 PM 33.8 °F 22.8 °F 26.6 °F 75% 30.12 in 10.0 mi NW 18.4 mph 26.5 mph N/A   Overcast